sensor_id;sensor_type;location;lat;lon;timestamp;temperature;humidity
41904;DHT22;27586;51.124;4.182;2023-07-31T00:00:28;16.70;99.90
41904;DHT22;27586;51.124;4.182;2023-07-31T00:02:54;16.80;99.90
41904;DHT22;27586;51.124;4.182;2023-07-31T00:05:20;16.70;99.90
41904;DHT22;27586;51.124;4.182;2023-07-31T00:07:45;16.70;99.90
41904;DHT22;27586;51.124;4.182;2023-07-31T00:10:11;16.70;99.90
41904;DHT22;27586;51.124;4.182;2023-07-31T00:12:38;16.70;99.90
41904;DHT22;27586;51.124;4.182;2023-07-31T00:15:06;16.70;99.90
41904;DHT22;27586;51.124;4.182;2023-07-31T00:17:32;16.70;99.90
41904;DHT22;27586;51.124;4.182;2023-07-31T00:19:57;16.70;99.90
41904;DHT22;27586;51.124;4.182;2023-07-31T00:22:23;16.70;99.90
41904;DHT22;27586;51.124;4.182;2023-07-31T00:24:49;16.70;99.90
41904;DHT22;27586;51.124;4.182;2023-07-31T00:27:15;16.70;99.90
41904;DHT22;27586;51.124;4.182;2023-07-31T00:29:40;16.60;99.90
41904;DHT22;27586;51.124;4.182;2023-07-31T00:32:06;16.70;99.90
41904;DHT22;27586;51.124;4.182;2023-07-31T00:34:32;16.80;99.90
41904;DHT22;27586;51.124;4.182;2023-07-31T00:36:58;16.80;99.90
41904;DHT22;27586;51.124;4.182;2023-07-31T00:39:23;16.80;99.90
41904;DHT22;27586;51.124;4.182;2023-07-31T00:41:49;16.70;99.90
41904;DHT22;27586;51.124;4.182;2023-07-31T00:44:15;16.80;99.90
41904;DHT22;27586;51.124;4.182;2023-07-31T00:46:40;16.80;99.90
41904;DHT22;27586;51.124;4.182;2023-07-31T00:49:06;16.70;99.90
41904;DHT22;27586;51.124;4.182;2023-07-31T00:51:33;16.70;99.90
41904;DHT22;27586;51.124;4.182;2023-07-31T00:53:58;16.70;99.90
41904;DHT22;27586;51.124;4.182;2023-07-31T00:56:25;16.70;99.90
41904;DHT22;27586;51.124;4.182;2023-07-31T00:58:51;16.80;99.90
41904;DHT22;27586;51.124;4.182;2023-07-31T01:01:17;16.70;99.90
41904;DHT22;27586;51.124;4.182;2023-07-31T01:03:42;16.80;99.90
41904;DHT22;27586;51.124;4.182;2023-07-31T01:06:17;16.80;99.90
41904;DHT22;27586;51.124;4.182;2023-07-31T01:09:20;16.80;99.90
41904;DHT22;27586;51.124;4.182;2023-07-31T01:11:57;16.80;99.90
41904;DHT22;27586;51.124;4.182;2023-07-31T01:14:23;16.80;99.90
41904;DHT22;27586;51.124;4.182;2023-07-31T01:16:48;16.60;99.90
41904;DHT22;27586;51.124;4.182;2023-07-31T01:19:21;16.70;99.90
41904;DHT22;27586;51.124;4.182;2023-07-31T01:22:27;16.70;99.90
41904;DHT22;27586;51.124;4.182;2023-07-31T01:27:47;16.70;99.90
41904;DHT22;27586;51.124;4.182;2023-07-31T01:30:18;16.80;99.90
41904;DHT22;27586;51.124;4.182;2023-07-31T01:32:48;16.80;99.90
41904;DHT22;27586;51.124;4.182;2023-07-31T01:35:15;16.80;99.90
41904;DHT22;27586;51.124;4.182;2023-07-31T01:37:40;16.80;99.90
41904;DHT22;27586;51.124;4.182;2023-07-31T01:40:06;16.80;99.90
41904;DHT22;27586;51.124;4.182;2023-07-31T01:42:32;16.80;99.90
41904;DHT22;27586;51.124;4.182;2023-07-31T01:44:58;16.80;99.90
41904;DHT22;27586;51.124;4.182;2023-07-31T01:47:23;16.70;99.90
41904;DHT22;27586;51.124;4.182;2023-07-31T01:49:49;16.80;99.90
41904;DHT22;27586;51.124;4.182;2023-07-31T01:52:15;16.80;99.90
41904;DHT22;27586;51.124;4.182;2023-07-31T01:54:40;16.80;99.90
41904;DHT22;27586;51.124;4.182;2023-07-31T01:57:06;16.80;99.90
41904;DHT22;27586;51.124;4.182;2023-07-31T01:59:32;16.90;99.90
41904;DHT22;27586;51.124;4.182;2023-07-31T02:01:57;16.70;99.90
41904;DHT22;27586;51.124;4.182;2023-07-31T02:04:23;16.80;99.90
41904;DHT22;27586;51.124;4.182;2023-07-31T02:06:49;16.80;99.90
41904;DHT22;27586;51.124;4.182;2023-07-31T02:09:14;16.80;99.90
41904;DHT22;27586;51.124;4.182;2023-07-31T02:11:40;16.80;99.90
41904;DHT22;27586;51.124;4.182;2023-07-31T02:14:05;16.80;99.90
41904;DHT22;27586;51.124;4.182;2023-07-31T02:16:31;16.80;99.90
41904;DHT22;27586;51.124;4.182;2023-07-31T02:18:57;16.90;99.90
41904;DHT22;27586;51.124;4.182;2023-07-31T02:21:23;16.90;99.90
41904;DHT22;27586;51.124;4.182;2023-07-31T02:23:48;16.90;99.90
41904;DHT22;27586;51.124;4.182;2023-07-31T02:26:14;16.90;99.90
41904;DHT22;27586;51.124;4.182;2023-07-31T02:28:39;16.80;99.90
41904;DHT22;27586;51.124;4.182;2023-07-31T02:31:08;16.80;99.90
41904;DHT22;27586;51.124;4.182;2023-07-31T02:33:33;16.90;99.90
41904;DHT22;27586;51.124;4.182;2023-07-31T02:35:59;16.90;99.90
41904;DHT22;27586;51.124;4.182;2023-07-31T02:38:25;16.70;99.90
41904;DHT22;27586;51.124;4.182;2023-07-31T02:40:50;16.80;99.90
41904;DHT22;27586;51.124;4.182;2023-07-31T02:43:16;16.90;99.90
41904;DHT22;27586;51.124;4.182;2023-07-31T02:45:42;16.90;99.90
41904;DHT22;27586;51.124;4.182;2023-07-31T02:48:07;16.90;99.90
41904;DHT22;27586;51.124;4.182;2023-07-31T02:50:33;16.90;99.90
41904;DHT22;27586;51.124;4.182;2023-07-31T02:52:59;17.00;99.90
41904;DHT22;27586;51.124;4.182;2023-07-31T02:55:24;16.90;99.90
41904;DHT22;27586;51.124;4.182;2023-07-31T02:57:50;16.90;99.90
41904;DHT22;27586;51.124;4.182;2023-07-31T03:00:17;17.00;99.90
41904;DHT22;27586;51.124;4.182;2023-07-31T03:02:43;17.00;99.90
41904;DHT22;27586;51.124;4.182;2023-07-31T03:05:09;17.10;99.90
41904;DHT22;27586;51.124;4.182;2023-07-31T03:07:34;16.90;99.90
41904;DHT22;27586;51.124;4.182;2023-07-31T03:10:00;17.00;99.90
41904;DHT22;27586;51.124;4.182;2023-07-31T03:12:27;17.00;99.90
41904;DHT22;27586;51.124;4.182;2023-07-31T03:14:53;17.00;99.90
41904;DHT22;27586;51.124;4.182;2023-07-31T03:17:18;17.10;99.90
41904;DHT22;27586;51.124;4.182;2023-07-31T03:19:44;17.10;99.90
41904;DHT22;27586;51.124;4.182;2023-07-31T03:22:09;17.10;99.90
41904;DHT22;27586;51.124;4.182;2023-07-31T03:24:35;17.10;99.90
41904;DHT22;27586;51.124;4.182;2023-07-31T03:27:01;17.20;99.90
41904;DHT22;27586;51.124;4.182;2023-07-31T03:29:26;17.10;99.90
41904;DHT22;27586;51.124;4.182;2023-07-31T03:31:52;17.20;99.90
41904;DHT22;27586;51.124;4.182;2023-07-31T03:34:18;17.20;99.90
41904;DHT22;27586;51.124;4.182;2023-07-31T03:36:43;17.20;99.90
41904;DHT22;27586;51.124;4.182;2023-07-31T03:39:09;17.20;99.90
41904;DHT22;27586;51.124;4.182;2023-07-31T03:41:35;17.20;99.90
41904;DHT22;27586;51.124;4.182;2023-07-31T03:44:01;17.20;99.90
41904;DHT22;27586;51.124;4.182;2023-07-31T03:46:26;17.20;99.90
41904;DHT22;27586;51.124;4.182;2023-07-31T03:48:52;17.00;99.90
41904;DHT22;27586;51.124;4.182;2023-07-31T03:51:18;17.00;99.90
41904;DHT22;27586;51.124;4.182;2023-07-31T03:53:43;17.00;99.90
41904;DHT22;27586;51.124;4.182;2023-07-31T03:56:10;17.00;99.90
41904;DHT22;27586;51.124;4.182;2023-07-31T03:58:35;17.00;99.90
41904;DHT22;27586;51.124;4.182;2023-07-31T04:01:02;17.10;99.90
41904;DHT22;27586;51.124;4.182;2023-07-31T04:03:28;17.10;99.90
41904;DHT22;27586;51.124;4.182;2023-07-31T04:05:55;17.00;99.90
41904;DHT22;27586;51.124;4.182;2023-07-31T04:08:23;17.00;99.90
41904;DHT22;27586;51.124;4.182;2023-07-31T04:10:49;17.00;99.90
41904;DHT22;27586;51.124;4.182;2023-07-31T04:13:15;17.00;99.90
41904;DHT22;27586;51.124;4.182;2023-07-31T04:15:41;17.00;99.90
41904;DHT22;27586;51.124;4.182;2023-07-31T04:18:07;16.90;99.90
41904;DHT22;27586;51.124;4.182;2023-07-31T04:20:32;16.90;99.90
41904;DHT22;27586;51.124;4.182;2023-07-31T04:22:58;16.90;99.90
41904;DHT22;27586;51.124;4.182;2023-07-31T04:25:24;17.00;99.90
41904;DHT22;27586;51.124;4.182;2023-07-31T04:27:49;16.90;99.90
41904;DHT22;27586;51.124;4.182;2023-07-31T04:30:15;16.80;99.90
41904;DHT22;27586;51.124;4.182;2023-07-31T04:32:41;16.80;99.90
41904;DHT22;27586;51.124;4.182;2023-07-31T04:35:07;16.80;99.90
41904;DHT22;27586;51.124;4.182;2023-07-31T04:37:32;16.90;99.90
41904;DHT22;27586;51.124;4.182;2023-07-31T04:39:58;16.90;99.90
41904;DHT22;27586;51.124;4.182;2023-07-31T04:42:23;16.90;99.90
41904;DHT22;27586;51.124;4.182;2023-07-31T04:44:49;16.90;99.90
41904;DHT22;27586;51.124;4.182;2023-07-31T04:47:15;16.90;99.90
41904;DHT22;27586;51.124;4.182;2023-07-31T04:49:40;16.90;99.90
41904;DHT22;27586;51.124;4.182;2023-07-31T04:52:06;17.00;99.90
41904;DHT22;27586;51.124;4.182;2023-07-31T04:54:32;17.00;99.90
41904;DHT22;27586;51.124;4.182;2023-07-31T04:56:58;17.00;99.90
41904;DHT22;27586;51.124;4.182;2023-07-31T04:59:23;16.90;99.90
41904;DHT22;27586;51.124;4.182;2023-07-31T05:01:49;16.90;99.90
41904;DHT22;27586;51.124;4.182;2023-07-31T05:04:15;16.90;99.90
41904;DHT22;27586;51.124;4.182;2023-07-31T05:06:41;17.00;99.90
41904;DHT22;27586;51.124;4.182;2023-07-31T05:09:07;17.00;99.90
41904;DHT22;27586;51.124;4.182;2023-07-31T05:11:32;17.00;99.90
41904;DHT22;27586;51.124;4.182;2023-07-31T05:13:58;17.00;99.90
41904;DHT22;27586;51.124;4.182;2023-07-31T05:16:23;17.00;99.90
41904;DHT22;27586;51.124;4.182;2023-07-31T05:18:49;17.10;99.90
41904;DHT22;27586;51.124;4.182;2023-07-31T05:21:15;17.10;99.90
41904;DHT22;27586;51.124;4.182;2023-07-31T05:23:40;17.10;99.90
41904;DHT22;27586;51.124;4.182;2023-07-31T05:26:07;17.10;99.90
41904;DHT22;27586;51.124;4.182;2023-07-31T05:28:35;17.10;99.90
41904;DHT22;27586;51.124;4.182;2023-07-31T05:31:01;17.00;99.90
41904;DHT22;27586;51.124;4.182;2023-07-31T05:33:27;17.00;99.90
41904;DHT22;27586;51.124;4.182;2023-07-31T05:35:53;17.00;99.90
41904;DHT22;27586;51.124;4.182;2023-07-31T05:38:19;17.00;99.90
41904;DHT22;27586;51.124;4.182;2023-07-31T05:40:44;17.10;99.90
41904;DHT22;27586;51.124;4.182;2023-07-31T05:43:10;17.00;99.90
41904;DHT22;27586;51.124;4.182;2023-07-31T05:45:36;17.00;99.90
41904;DHT22;27586;51.124;4.182;2023-07-31T05:48:02;17.00;99.90
41904;DHT22;27586;51.124;4.182;2023-07-31T05:50:28;17.00;99.90
41904;DHT22;27586;51.124;4.182;2023-07-31T05:52:54;17.00;99.90
41904;DHT22;27586;51.124;4.182;2023-07-31T05:55:19;17.00;99.90
41904;DHT22;27586;51.124;4.182;2023-07-31T05:57:45;17.00;99.90
41904;DHT22;27586;51.124;4.182;2023-07-31T06:00:12;17.00;99.90
41904;DHT22;27586;51.124;4.182;2023-07-31T06:02:38;17.00;99.90
41904;DHT22;27586;51.124;4.182;2023-07-31T06:05:04;17.10;99.90
41904;DHT22;27586;51.124;4.182;2023-07-31T06:07:31;17.20;99.90
41904;DHT22;27586;51.124;4.182;2023-07-31T06:09:57;17.10;99.90
41904;DHT22;27586;51.124;4.182;2023-07-31T06:12:28;17.10;99.90
41904;DHT22;27586;51.124;4.182;2023-07-31T06:14:54;17.10;99.90
41904;DHT22;27586;51.124;4.182;2023-07-31T06:17:20;17.10;99.90
41904;DHT22;27586;51.124;4.182;2023-07-31T06:19:46;17.20;99.90
41904;DHT22;27586;51.124;4.182;2023-07-31T06:22:12;17.20;99.90
41904;DHT22;27586;51.124;4.182;2023-07-31T06:24:38;17.10;99.90
41904;DHT22;27586;51.124;4.182;2023-07-31T06:27:04;17.10;99.90
41904;DHT22;27586;51.124;4.182;2023-07-31T06:29:30;17.10;99.90
41904;DHT22;27586;51.124;4.182;2023-07-31T06:31:56;17.20;99.90
41904;DHT22;27586;51.124;4.182;2023-07-31T06:34:22;17.20;99.90
41904;DHT22;27586;51.124;4.182;2023-07-31T06:36:47;17.20;99.90
41904;DHT22;27586;51.124;4.182;2023-07-31T06:39:13;17.20;99.90
41904;DHT22;27586;51.124;4.182;2023-07-31T06:41:39;17.10;99.90
41904;DHT22;27586;51.124;4.182;2023-07-31T06:44:04;17.10;99.90
41904;DHT22;27586;51.124;4.182;2023-07-31T06:46:30;17.20;99.90
41904;DHT22;27586;51.124;4.182;2023-07-31T06:48:55;17.20;99.90
41904;DHT22;27586;51.124;4.182;2023-07-31T06:51:21;17.20;99.90
41904;DHT22;27586;51.124;4.182;2023-07-31T06:53:47;17.30;99.90
41904;DHT22;27586;51.124;4.182;2023-07-31T06:56:12;17.30;99.90
41904;DHT22;27586;51.124;4.182;2023-07-31T06:58:38;17.30;99.90
41904;DHT22;27586;51.124;4.182;2023-07-31T07:01:04;17.40;99.90
41904;DHT22;27586;51.124;4.182;2023-07-31T07:03:30;17.40;99.90
41904;DHT22;27586;51.124;4.182;2023-07-31T07:05:56;17.30;99.90
41904;DHT22;27586;51.124;4.182;2023-07-31T07:08:21;17.30;99.90
41904;DHT22;27586;51.124;4.182;2023-07-31T07:10:47;17.30;99.90
41904;DHT22;27586;51.124;4.182;2023-07-31T07:13:13;17.30;99.90
41904;DHT22;27586;51.124;4.182;2023-07-31T07:15:39;17.30;99.90
41904;DHT22;27586;51.124;4.182;2023-07-31T07:18:05;17.30;99.90
41904;DHT22;27586;51.124;4.182;2023-07-31T07:20:30;17.40;99.90
41904;DHT22;27586;51.124;4.182;2023-07-31T07:22:56;17.30;99.90
41904;DHT22;27586;51.124;4.182;2023-07-31T07:25:22;17.30;99.90
41904;DHT22;27586;51.124;4.182;2023-07-31T07:27:47;17.30;99.90
41904;DHT22;27586;51.124;4.182;2023-07-31T07:30:13;17.30;99.90
41904;DHT22;27586;51.124;4.182;2023-07-31T07:32:40;17.30;99.90
41904;DHT22;27586;51.124;4.182;2023-07-31T07:35:06;17.40;99.90
41904;DHT22;27586;51.124;4.182;2023-07-31T07:37:32;17.20;99.90
41904;DHT22;27586;51.124;4.182;2023-07-31T07:39:57;17.20;99.90
41904;DHT22;27586;51.124;4.182;2023-07-31T07:42:23;17.30;99.90
41904;DHT22;27586;51.124;4.182;2023-07-31T07:44:49;17.20;99.90
41904;DHT22;27586;51.124;4.182;2023-07-31T07:47:14;17.40;99.90
41904;DHT22;27586;51.124;4.182;2023-07-31T07:49:40;17.30;99.90
41904;DHT22;27586;51.124;4.182;2023-07-31T07:52:06;17.40;99.90
41904;DHT22;27586;51.124;4.182;2023-07-31T07:54:32;17.60;99.90
41904;DHT22;27586;51.124;4.182;2023-07-31T07:56:57;17.60;99.90
41904;DHT22;27586;51.124;4.182;2023-07-31T07:59:23;17.70;99.90
41904;DHT22;27586;51.124;4.182;2023-07-31T08:01:49;17.70;99.90
41904;DHT22;27586;51.124;4.182;2023-07-31T08:04:14;17.70;99.90
41904;DHT22;27586;51.124;4.182;2023-07-31T08:06:40;17.60;99.90
41904;DHT22;27586;51.124;4.182;2023-07-31T08:09:05;17.50;99.90
41904;DHT22;27586;51.124;4.182;2023-07-31T08:11:34;17.50;99.90
41904;DHT22;27586;51.124;4.182;2023-07-31T08:14:00;17.50;99.90
41904;DHT22;27586;51.124;4.182;2023-07-31T08:16:26;17.50;99.90
41904;DHT22;27586;51.124;4.182;2023-07-31T08:18:52;17.40;99.90
41904;DHT22;27586;51.124;4.182;2023-07-31T08:21:17;17.40;99.90
41904;DHT22;27586;51.124;4.182;2023-07-31T08:23:43;17.50;99.90
41904;DHT22;27586;51.124;4.182;2023-07-31T08:26:17;17.60;99.90
41904;DHT22;27586;51.124;4.182;2023-07-31T08:28:43;17.60;99.90
41904;DHT22;27586;51.124;4.182;2023-07-31T08:31:09;17.60;99.90
41904;DHT22;27586;51.124;4.182;2023-07-31T08:33:36;17.60;99.90
41904;DHT22;27586;51.124;4.182;2023-07-31T08:36:02;17.70;99.90
41904;DHT22;27586;51.124;4.182;2023-07-31T08:38:27;17.70;99.90
41904;DHT22;27586;51.124;4.182;2023-07-31T08:40:56;17.70;99.90
41904;DHT22;27586;51.124;4.182;2023-07-31T08:43:26;17.70;99.90
41904;DHT22;27586;51.124;4.182;2023-07-31T08:45:53;17.70;99.90
41904;DHT22;27586;51.124;4.182;2023-07-31T08:48:20;17.70;99.90
41904;DHT22;27586;51.124;4.182;2023-07-31T08:50:46;17.70;99.90
41904;DHT22;27586;51.124;4.182;2023-07-31T08:53:12;17.80;99.90
41904;DHT22;27586;51.124;4.182;2023-07-31T08:55:38;17.80;99.90
41904;DHT22;27586;51.124;4.182;2023-07-31T08:58:04;17.80;99.90
41904;DHT22;27586;51.124;4.182;2023-07-31T09:00:32;17.90;99.90
41904;DHT22;27586;51.124;4.182;2023-07-31T09:03:14;18.00;99.90
41904;DHT22;27586;51.124;4.182;2023-07-31T09:05:43;18.10;99.90
41904;DHT22;27586;51.124;4.182;2023-07-31T09:08:10;18.30;99.90
41904;DHT22;27586;51.124;4.182;2023-07-31T09:10:41;18.40;99.90
41904;DHT22;27586;51.124;4.182;2023-07-31T09:13:07;18.40;99.90
41904;DHT22;27586;51.124;4.182;2023-07-31T09:15:33;18.60;99.90
41904;DHT22;27586;51.124;4.182;2023-07-31T09:18:01;18.80;99.90
41904;DHT22;27586;51.124;4.182;2023-07-31T09:20:28;19.10;99.90
41904;DHT22;27586;51.124;4.182;2023-07-31T09:22:55;19.30;99.90
41904;DHT22;27586;51.124;4.182;2023-07-31T09:25:25;19.50;99.90
41904;DHT22;27586;51.124;4.182;2023-07-31T09:30:20;19.60;99.90
41904;DHT22;27586;51.124;4.182;2023-07-31T09:32:48;19.50;99.90
41904;DHT22;27586;51.124;4.182;2023-07-31T09:35:22;19.50;99.90
41904;DHT22;27586;51.124;4.182;2023-07-31T09:37:52;19.50;99.90
41904;DHT22;27586;51.124;4.182;2023-07-31T09:40:31;19.50;99.90
41904;DHT22;27586;51.124;4.182;2023-07-31T09:43:02;19.50;99.90
41904;DHT22;27586;51.124;4.182;2023-07-31T09:45:28;19.30;99.90
41904;DHT22;27586;51.124;4.182;2023-07-31T09:47:55;19.30;99.90
41904;DHT22;27586;51.124;4.182;2023-07-31T09:50:22;19.20;99.90
41904;DHT22;27586;51.124;4.182;2023-07-31T09:52:49;19.00;99.90
41904;DHT22;27586;51.124;4.182;2023-07-31T09:55:14;18.90;99.90
41904;DHT22;27586;51.124;4.182;2023-07-31T09:57:41;18.90;99.90
41904;DHT22;27586;51.124;4.182;2023-07-31T10:00:09;18.90;99.90
41904;DHT22;27586;51.124;4.182;2023-07-31T10:02:36;19.00;99.90
41904;DHT22;27586;51.124;4.182;2023-07-31T10:05:04;19.10;99.90
41904;DHT22;27586;51.124;4.182;2023-07-31T10:07:30;18.90;99.90
41904;DHT22;27586;51.124;4.182;2023-07-31T10:10:00;18.80;99.90
41904;DHT22;27586;51.124;4.182;2023-07-31T10:12:27;18.70;99.90
41904;DHT22;27586;51.124;4.182;2023-07-31T10:14:56;18.60;99.90
41904;DHT22;27586;51.124;4.182;2023-07-31T10:17:22;18.60;99.90
41904;DHT22;27586;51.124;4.182;2023-07-31T10:19:49;18.50;99.90
41904;DHT22;27586;51.124;4.182;2023-07-31T10:22:15;18.40;99.90
41904;DHT22;27586;51.124;4.182;2023-07-31T10:24:45;18.40;99.90
41904;DHT22;27586;51.124;4.182;2023-07-31T10:27:11;18.40;99.90
41904;DHT22;27586;51.124;4.182;2023-07-31T10:29:38;18.50;99.90
41904;DHT22;27586;51.124;4.182;2023-07-31T10:32:06;18.50;99.90
41904;DHT22;27586;51.124;4.182;2023-07-31T10:34:35;18.50;99.90
41904;DHT22;27586;51.124;4.182;2023-07-31T10:37:27;18.50;99.90
41904;DHT22;27586;51.124;4.182;2023-07-31T10:40:03;18.50;99.90
41904;DHT22;27586;51.124;4.182;2023-07-31T10:42:30;18.50;99.90
41904;DHT22;27586;51.124;4.182;2023-07-31T10:45:04;18.30;99.90
41904;DHT22;27586;51.124;4.182;2023-07-31T10:47:30;18.30;99.90
41904;DHT22;27586;51.124;4.182;2023-07-31T10:50:21;18.30;99.90
41904;DHT22;27586;51.124;4.182;2023-07-31T10:52:48;18.30;99.90
41904;DHT22;27586;51.124;4.182;2023-07-31T10:55:40;18.40;99.90
41904;DHT22;27586;51.124;4.182;2023-07-31T10:58:15;18.40;99.90
41904;DHT22;27586;51.124;4.182;2023-07-31T11:00:44;18.20;99.90
41904;DHT22;27586;51.124;4.182;2023-07-31T11:03:19;18.40;99.90
41904;DHT22;27586;51.124;4.182;2023-07-31T11:05:53;18.50;99.90
41904;DHT22;27586;51.124;4.182;2023-07-31T11:08:27;18.40;99.90
41904;DHT22;27586;51.124;4.182;2023-07-31T11:13:51;18.40;99.90
41904;DHT22;27586;51.124;4.182;2023-07-31T11:16:22;18.40;99.90
41904;DHT22;27586;51.124;4.182;2023-07-31T11:18:49;18.50;99.90
41904;DHT22;27586;51.124;4.182;2023-07-31T11:21:18;18.60;99.90
41904;DHT22;27586;51.124;4.182;2023-07-31T11:23:52;18.50;99.90
41904;DHT22;27586;51.124;4.182;2023-07-31T11:26:18;18.50;99.90
41904;DHT22;27586;51.124;4.182;2023-07-31T11:28:47;18.60;99.90
41904;DHT22;27586;51.124;4.182;2023-07-31T11:31:13;18.60;99.90
41904;DHT22;27586;51.124;4.182;2023-07-31T11:33:38;18.70;99.90
41904;DHT22;27586;51.124;4.182;2023-07-31T11:36:04;18.60;99.90
41904;DHT22;27586;51.124;4.182;2023-07-31T11:38:33;18.80;99.90
41904;DHT22;27586;51.124;4.182;2023-07-31T11:41:01;18.80;99.90
41904;DHT22;27586;51.124;4.182;2023-07-31T11:43:33;18.70;99.90
41904;DHT22;27586;51.124;4.182;2023-07-31T11:46:00;18.70;99.90
41904;DHT22;27586;51.124;4.182;2023-07-31T11:48:30;18.70;99.90
41904;DHT22;27586;51.124;4.182;2023-07-31T11:51:00;18.70;99.90
41904;DHT22;27586;51.124;4.182;2023-07-31T11:53:43;18.70;99.90
41904;DHT22;27586;51.124;4.182;2023-07-31T11:56:10;18.70;99.90
41904;DHT22;27586;51.124;4.182;2023-07-31T11:58:37;18.70;99.90
41904;DHT22;27586;51.124;4.182;2023-07-31T12:01:04;18.70;99.90
41904;DHT22;27586;51.124;4.182;2023-07-31T12:03:30;18.80;99.90
41904;DHT22;27586;51.124;4.182;2023-07-31T12:05:57;19.00;99.90
41904;DHT22;27586;51.124;4.182;2023-07-31T12:08:24;19.20;99.90
41904;DHT22;27586;51.124;4.182;2023-07-31T12:10:53;19.30;99.90
41904;DHT22;27586;51.124;4.182;2023-07-31T12:13:22;19.40;99.90
41904;DHT22;27586;51.124;4.182;2023-07-31T12:15:49;19.50;99.90
41904;DHT22;27586;51.124;4.182;2023-07-31T12:18:22;19.70;99.90
41904;DHT22;27586;51.124;4.182;2023-07-31T12:20:57;19.90;99.90
41904;DHT22;27586;51.124;4.182;2023-07-31T12:23:28;20.00;99.90
41904;DHT22;27586;51.124;4.182;2023-07-31T12:26:07;19.80;99.90
41904;DHT22;27586;51.124;4.182;2023-07-31T12:28:38;19.70;99.90
41904;DHT22;27586;51.124;4.182;2023-07-31T12:31:04;19.50;99.90
41904;DHT22;27586;51.124;4.182;2023-07-31T12:33:31;19.40;99.90
41904;DHT22;27586;51.124;4.182;2023-07-31T12:36:00;19.50;99.90
41904;DHT22;27586;51.124;4.182;2023-07-31T12:38:26;19.40;99.90
41904;DHT22;27586;51.124;4.182;2023-07-31T12:40:51;19.20;99.90
41904;DHT22;27586;51.124;4.182;2023-07-31T12:43:17;19.30;99.90
41904;DHT22;27586;51.124;4.182;2023-07-31T12:45:43;19.20;99.90
41904;DHT22;27586;51.124;4.182;2023-07-31T12:48:08;19.20;99.90
41904;DHT22;27586;51.124;4.182;2023-07-31T12:50:34;19.20;99.90
41904;DHT22;27586;51.124;4.182;2023-07-31T12:53:02;19.20;99.90
41904;DHT22;27586;51.124;4.182;2023-07-31T12:55:29;19.30;99.90
41904;DHT22;27586;51.124;4.182;2023-07-31T12:57:55;19.20;99.90
41904;DHT22;27586;51.124;4.182;2023-07-31T13:00:21;19.20;99.90
41904;DHT22;27586;51.124;4.182;2023-07-31T13:02:47;19.20;99.90
41904;DHT22;27586;51.124;4.182;2023-07-31T13:05:13;19.20;99.90
41904;DHT22;27586;51.124;4.182;2023-07-31T13:07:39;19.20;99.90
41904;DHT22;27586;51.124;4.182;2023-07-31T13:10:06;19.10;99.90
41904;DHT22;27586;51.124;4.182;2023-07-31T13:12:32;19.00;99.90
41904;DHT22;27586;51.124;4.182;2023-07-31T13:14:57;18.80;99.90
41904;DHT22;27586;51.124;4.182;2023-07-31T13:17:23;18.80;99.90
41904;DHT22;27586;51.124;4.182;2023-07-31T13:19:49;18.80;99.90
41904;DHT22;27586;51.124;4.182;2023-07-31T13:22:14;18.80;99.90
41904;DHT22;27586;51.124;4.182;2023-07-31T13:24:40;18.90;99.90
41904;DHT22;27586;51.124;4.182;2023-07-31T13:27:06;18.80;99.90
41904;DHT22;27586;51.124;4.182;2023-07-31T13:29:31;18.80;99.90
41904;DHT22;27586;51.124;4.182;2023-07-31T13:31:57;18.80;99.90
41904;DHT22;27586;51.124;4.182;2023-07-31T13:34:23;18.80;99.90
41904;DHT22;27586;51.124;4.182;2023-07-31T13:36:49;18.70;99.90
41904;DHT22;27586;51.124;4.182;2023-07-31T13:39:15;18.70;99.90
41904;DHT22;27586;51.124;4.182;2023-07-31T13:41:40;18.60;99.90
41904;DHT22;27586;51.124;4.182;2023-07-31T13:44:06;18.60;99.90
41904;DHT22;27586;51.124;4.182;2023-07-31T13:46:32;18.70;99.90
41904;DHT22;27586;51.124;4.182;2023-07-31T13:48:59;18.80;99.90
41904;DHT22;27586;51.124;4.182;2023-07-31T13:51:25;18.70;99.90
41904;DHT22;27586;51.124;4.182;2023-07-31T13:53:51;18.60;99.90
41904;DHT22;27586;51.124;4.182;2023-07-31T13:56:17;18.50;99.90
41904;DHT22;27586;51.124;4.182;2023-07-31T13:58:42;18.50;99.90
41904;DHT22;27586;51.124;4.182;2023-07-31T14:01:08;18.40;99.90
41904;DHT22;27586;51.124;4.182;2023-07-31T14:03:34;18.30;99.90
41904;DHT22;27586;51.124;4.182;2023-07-31T14:06:00;18.30;99.90
41904;DHT22;27586;51.124;4.182;2023-07-31T14:08:25;18.30;99.90
41904;DHT22;27586;51.124;4.182;2023-07-31T14:10:51;18.40;99.90
41904;DHT22;27586;51.124;4.182;2023-07-31T14:13:17;18.30;99.90
41904;DHT22;27586;51.124;4.182;2023-07-31T14:15:43;18.30;99.90
41904;DHT22;27586;51.124;4.182;2023-07-31T14:18:09;18.30;99.90
41904;DHT22;27586;51.124;4.182;2023-07-31T14:20:35;18.30;99.90
41904;DHT22;27586;51.124;4.182;2023-07-31T14:23:01;18.30;99.90
41904;DHT22;27586;51.124;4.182;2023-07-31T14:25:28;18.20;99.90
41904;DHT22;27586;51.124;4.182;2023-07-31T14:27:54;18.10;99.90
41904;DHT22;27586;51.124;4.182;2023-07-31T14:30:20;18.20;99.90
41904;DHT22;27586;51.124;4.182;2023-07-31T14:32:46;18.20;99.90
41904;DHT22;27586;51.124;4.182;2023-07-31T14:35:12;18.20;99.90
41904;DHT22;27586;51.124;4.182;2023-07-31T14:37:41;18.20;99.90
41904;DHT22;27586;51.124;4.182;2023-07-31T14:40:08;18.20;99.90
41904;DHT22;27586;51.124;4.182;2023-07-31T14:42:34;18.20;99.90
41904;DHT22;27586;51.124;4.182;2023-07-31T14:45:00;18.20;99.90
41904;DHT22;27586;51.124;4.182;2023-07-31T14:47:26;18.20;99.90
41904;DHT22;27586;51.124;4.182;2023-07-31T14:49:52;18.10;99.90
41904;DHT22;27586;51.124;4.182;2023-07-31T14:52:17;18.10;99.90
41904;DHT22;27586;51.124;4.182;2023-07-31T14:54:43;18.30;99.90
41904;DHT22;27586;51.124;4.182;2023-07-31T14:57:09;18.30;99.90
41904;DHT22;27586;51.124;4.182;2023-07-31T14:59:35;18.30;99.90
41904;DHT22;27586;51.124;4.182;2023-07-31T15:02:00;18.30;99.90
41904;DHT22;27586;51.124;4.182;2023-07-31T15:04:26;18.30;99.90
41904;DHT22;27586;51.124;4.182;2023-07-31T15:06:52;18.30;99.90
41904;DHT22;27586;51.124;4.182;2023-07-31T15:09:17;18.30;99.90
41904;DHT22;27586;51.124;4.182;2023-07-31T15:11:43;18.30;99.90
41904;DHT22;27586;51.124;4.182;2023-07-31T15:14:09;18.30;99.90
41904;DHT22;27586;51.124;4.182;2023-07-31T15:16:35;18.30;99.90
41904;DHT22;27586;51.124;4.182;2023-07-31T15:19:00;18.30;99.90
41904;DHT22;27586;51.124;4.182;2023-07-31T15:21:26;18.30;99.90
41904;DHT22;27586;51.124;4.182;2023-07-31T15:23:52;18.40;99.90
41904;DHT22;27586;51.124;4.182;2023-07-31T15:26:18;18.40;99.90
41904;DHT22;27586;51.124;4.182;2023-07-31T15:28:50;18.50;99.90
41904;DHT22;27586;51.124;4.182;2023-07-31T15:31:20;18.40;99.90
41904;DHT22;27586;51.124;4.182;2023-07-31T15:33:48;18.40;99.90
41904;DHT22;27586;51.124;4.182;2023-07-31T15:36:13;18.30;99.90